sensor_id;sensor_type;location;lat;lon;timestamp;pressure;altitude;pressure_sealevel;temperature;humidity
76137;BME280;68622;53.128;17.966;2023-04-03T00:00:31;102429.45;;;0.31;63.44
76137;BME280;68622;53.128;17.966;2023-04-03T00:03:14;102431.27;;;0.25;64.06
76137;BME280;68622;53.128;17.966;2023-04-03T00:05:41;102430.64;;;0.22;64.00
76137;BME280;68622;53.128;17.966;2023-04-03T00:08:07;102432.20;;;0.19;64.21
76137;BME280;68622;53.128;17.966;2023-04-03T00:10:36;102428.02;;;0.16;64.52
76137;BME280;68622;53.128;17.966;2023-04-03T00:13:04;102424.30;;;0.13;63.81
76137;BME280;68622;53.128;17.966;2023-04-03T00:15:31;102424.31;;;0.13;63.90
76137;BME280;68622;53.128;17.966;2023-04-03T00:17:58;102425.73;;;0.10;64.66
76137;BME280;68622;53.128;17.966;2023-04-03T00:20:24;102424.63;;;0.14;64.43
76137;BME280;68622;53.128;17.966;2023-04-03T00:22:51;102421.40;;;0.13;64.51
76137;BME280;68622;53.128;17.966;2023-04-03T00:25:17;102420.77;;;0.11;64.84
76137;BME280;68622;53.128;17.966;2023-04-03T00:27:44;102422.78;;;0.12;64.42
76137;BME280;68622;53.128;17.966;2023-04-03T00:30:14;102422.55;;;0.07;65.09
76137;BME280;68622;53.128;17.966;2023-04-03T00:32:42;102422.02;;;0.08;64.71
76137;BME280;68622;53.128;17.966;2023-04-03T00:35:08;102419.13;;;0.07;64.36
76137;BME280;68622;53.128;17.966;2023-04-03T00:37:36;102419.48;;;0.06;64.16
76137;BME280;68622;53.128;17.966;2023-04-03T00:40:03;102420.55;;;0.03;65.32
76137;BME280;68622;53.128;17.966;2023-04-03T00:42:30;102417.64;;;0.03;65.28
76137;BME280;68622;53.128;17.966;2023-04-03T00:47:24;102419.86;;;0.04;65.37
76137;BME280;68622;53.128;17.966;2023-04-03T00:49:52;102424.66;;;0.02;65.38
76137;BME280;68622;53.128;17.966;2023-04-03T00:52:23;102422.95;;;0.03;65.08
76137;BME280;68622;53.128;17.966;2023-04-03T00:54:54;102424.48;;;0.02;64.62
76137;BME280;68622;53.128;17.966;2023-04-03T00:57:23;102425.77;;;-0.03;65.28
76137;BME280;68622;53.128;17.966;2023-04-03T00:59:53;102424.27;;;-0.06;64.93
76137;BME280;68622;53.128;17.966;2023-04-03T01:02:20;102426.50;;;-0.06;65.14
76137;BME280;68622;53.128;17.966;2023-04-03T01:04:47;102422.87;;;-0.03;64.83
76137;BME280;68622;53.128;17.966;2023-04-03T01:07:16;102425.12;;;-0.05;65.46
76137;BME280;68622;53.128;17.966;2023-04-03T01:09:45;102421.75;;;-0.08;65.69
76137;BME280;68622;53.128;17.966;2023-04-03T01:14:40;102422.48;;;-0.10;65.44
76137;BME280;68622;53.128;17.966;2023-04-03T01:17:35;102425.41;;;-0.12;65.15
76137;BME280;68622;53.128;17.966;2023-04-03T01:25:27;102433.02;;;-0.18;65.56
76137;BME280;68622;53.128;17.966;2023-04-03T01:27:54;102430.50;;;-0.20;66.41
76137;BME280;68622;53.128;17.966;2023-04-03T01:30:26;102436.80;;;-0.20;66.10
76137;BME280;68622;53.128;17.966;2023-04-03T01:32:54;102438.16;;;-0.20;65.99
76137;BME280;68622;53.128;17.966;2023-04-03T01:35:21;102437.49;;;-0.21;65.91
76137;BME280;68622;53.128;17.966;2023-04-03T01:37:47;102442.11;;;-0.22;65.52
76137;BME280;68622;53.128;17.966;2023-04-03T01:40:14;102443.83;;;-0.23;65.86
76137;BME280;68622;53.128;17.966;2023-04-03T01:42:41;102444.92;;;-0.27;66.17
76137;BME280;68622;53.128;17.966;2023-04-03T01:45:08;102444.24;;;-0.26;66.36
76137;BME280;68622;53.128;17.966;2023-04-03T01:47:35;102445.21;;;-0.24;66.44
76137;BME280;68622;53.128;17.966;2023-04-03T01:50:02;102442.86;;;-0.26;66.59
76137;BME280;68622;53.128;17.966;2023-04-03T01:52:30;102445.61;;;-0.27;66.35
76137;BME280;68622;53.128;17.966;2023-04-03T01:54:57;102445.80;;;-0.28;66.55
76137;BME280;68622;53.128;17.966;2023-04-03T01:57:24;102447.00;;;-0.29;65.97
76137;BME280;68622;53.128;17.966;2023-04-03T01:59:50;102446.02;;;-0.33;66.73
76137;BME280;68622;53.128;17.966;2023-04-03T02:02:17;102445.00;;;-0.33;66.28
76137;BME280;68622;53.128;17.966;2023-04-03T02:04:46;102448.25;;;-0.33;66.00
76137;BME280;68622;53.128;17.966;2023-04-03T02:07:12;102446.52;;;-0.32;65.96
76137;BME280;68622;53.128;17.966;2023-04-03T02:09:39;102447.03;;;-0.31;66.44
76137;BME280;68622;53.128;17.966;2023-04-03T02:12:06;102449.96;;;-0.34;66.68
76137;BME280;68622;53.128;17.966;2023-04-03T02:14:33;102448.82;;;-0.36;66.60
76137;BME280;68622;53.128;17.966;2023-04-03T02:17:01;102451.19;;;-0.35;66.15
76137;BME280;68622;53.128;17.966;2023-04-03T02:19:31;102450.17;;;-0.35;66.58
76137;BME280;68622;53.128;17.966;2023-04-03T02:21:58;102448.83;;;-0.36;66.66
76137;BME280;68622;53.128;17.966;2023-04-03T02:24:24;102448.84;;;-0.38;67.01
76137;BME280;68622;53.128;17.966;2023-04-03T02:26:51;102451.75;;;-0.39;66.49
76137;BME280;68622;53.128;17.966;2023-04-03T02:29:17;102450.73;;;-0.40;66.98
76137;BME280;68622;53.128;17.966;2023-04-03T02:31:44;102451.38;;;-0.36;66.78
76137;BME280;68622;53.128;17.966;2023-04-03T02:34:11;102456.31;;;-0.35;66.77
76137;BME280;68622;53.128;17.966;2023-04-03T02:36:38;102456.13;;;-0.35;67.12
76137;BME280;68622;53.128;17.966;2023-04-03T02:39:07;102457.31;;;-0.34;66.74
76137;BME280;68622;53.128;17.966;2023-04-03T02:41:35;102461.25;;;-0.35;66.90
76137;BME280;68622;53.128;17.966;2023-04-03T02:44:04;102465.20;;;-0.37;66.79
76137;BME280;68622;53.128;17.966;2023-04-03T02:46:32;102472.38;;;-0.40;66.67
76137;BME280;68622;53.128;17.966;2023-04-03T02:48:59;102471.43;;;-0.44;66.65
76137;BME280;68622;53.128;17.966;2023-04-03T02:51:26;102472.12;;;-0.44;66.93
76137;BME280;68622;53.128;17.966;2023-04-03T02:53:53;102473.80;;;-0.43;66.49
76137;BME280;68622;53.128;17.966;2023-04-03T02:56:22;102474.45;;;-0.41;66.39
76137;BME280;68622;53.128;17.966;2023-04-03T02:58:48;102478.06;;;-0.42;66.72
76137;BME280;68622;53.128;17.966;2023-04-03T03:01:15;102479.78;;;-0.43;66.81
76137;BME280;68622;53.128;17.966;2023-04-03T03:03:42;102480.15;;;-0.46;66.26
76137;BME280;68622;53.128;17.966;2023-04-03T03:06:14;102482.89;;;-0.49;66.75
76137;BME280;68622;53.128;17.966;2023-04-03T03:08:42;102484.17;;;-0.53;67.11
76137;BME280;68622;53.128;17.966;2023-04-03T03:11:09;102484.36;;;-0.54;66.87
76137;BME280;68622;53.128;17.966;2023-04-03T03:13:36;102485.06;;;-0.57;67.12
76137;BME280;68622;53.128;17.966;2023-04-03T03:16:03;102486.27;;;-0.57;66.96
76137;BME280;68622;53.128;17.966;2023-04-03T03:18:30;102484.20;;;-0.56;66.77
76137;BME280;68622;53.128;17.966;2023-04-03T03:20:59;102487.43;;;-0.55;66.89
76137;BME280;68622;53.128;17.966;2023-04-03T03:23:27;102489.83;;;-0.56;67.70
76137;BME280;68622;53.128;17.966;2023-04-03T03:25:58;102491.36;;;-0.55;67.40
76137;BME280;68622;53.128;17.966;2023-04-03T03:28:25;102485.91;;;-0.57;67.39
76137;BME280;68622;53.128;17.966;2023-04-03T03:30:52;102491.06;;;-0.59;67.58
76137;BME280;68622;53.128;17.966;2023-04-03T03:33:19;102491.62;;;-0.61;68.14
76137;BME280;68622;53.128;17.966;2023-04-03T03:35:46;102491.30;;;-0.64;67.74
76137;BME280;68622;53.128;17.966;2023-04-03T03:38:13;102497.29;;;-0.67;67.55
76137;BME280;68622;53.128;17.966;2023-04-03T03:40:39;102498.81;;;-0.66;67.19
76137;BME280;68622;53.128;17.966;2023-04-03T03:43:07;102498.46;;;-0.64;67.01
76137;BME280;68622;53.128;17.966;2023-04-03T03:45:33;102498.45;;;-0.63;67.32
76137;BME280;68622;53.128;17.966;2023-04-03T03:48:02;102501.15;;;-0.61;67.28
76137;BME280;68622;53.128;17.966;2023-04-03T03:50:29;102499.97;;;-0.62;67.69
76137;BME280;68622;53.128;17.966;2023-04-03T03:52:55;102501.34;;;-0.62;67.52
76137;BME280;68622;53.128;17.966;2023-04-03T03:55:22;102505.79;;;-0.64;67.68
76137;BME280;68622;53.128;17.966;2023-04-03T03:57:51;102511.45;;;-0.67;67.87
76137;BME280;68622;53.128;17.966;2023-04-03T04:00:19;102509.95;;;-0.69;67.60
76137;BME280;68622;53.128;17.966;2023-04-03T04:02:48;102515.58;;;-0.69;67.50
76137;BME280;68622;53.128;17.966;2023-04-03T04:05:16;102514.04;;;-0.69;67.41
76137;BME280;68622;53.128;17.966;2023-04-03T04:07:43;102514.55;;;-0.69;68.23
76137;BME280;68622;53.128;17.966;2023-04-03T04:10:09;102517.77;;;-0.68;67.63
76137;BME280;68622;53.128;17.966;2023-04-03T04:12:36;102519.84;;;-0.69;67.21
76137;BME280;68622;53.128;17.966;2023-04-03T04:15:04;102521.20;;;-0.70;67.83
76137;BME280;68622;53.128;17.966;2023-04-03T04:17:31;102523.44;;;-0.71;67.78
76137;BME280;68622;53.128;17.966;2023-04-03T04:19:58;102526.52;;;-0.73;68.22
76137;BME280;68622;53.128;17.966;2023-04-03T04:22:24;102530.09;;;-0.74;67.94
76137;BME280;68622;53.128;17.966;2023-04-03T04:24:51;102532.64;;;-0.72;67.59
76137;BME280;68622;53.128;17.966;2023-04-03T04:27:18;102536.37;;;-0.70;67.97
76137;BME280;68622;53.128;17.966;2023-04-03T04:29:45;102535.69;;;-0.69;68.19
76137;BME280;68622;53.128;17.966;2023-04-03T04:32:11;102532.96;;;-0.69;67.62
76137;BME280;68622;53.128;17.966;2023-04-03T04:34:38;102534.31;;;-0.69;67.97
76137;BME280;68622;53.128;17.966;2023-04-03T04:37:05;102535.17;;;-0.69;68.05
76137;BME280;68622;53.128;17.966;2023-04-03T04:39:32;102537.91;;;-0.70;68.24
76137;BME280;68622;53.128;17.966;2023-04-03T04:41:58;102533.81;;;-0.69;68.05
76137;BME280;68622;53.128;17.966;2023-04-03T04:44:27;102535.16;;;-0.69;68.38
76137;BME280;68622;53.128;17.966;2023-04-03T04:46:53;102533.89;;;-0.62;68.19
76137;BME280;68622;53.128;17.966;2023-04-03T04:49:20;102541.16;;;-0.59;67.96
76137;BME280;68622;53.128;17.966;2023-04-03T04:51:47;102541.67;;;-0.59;68.11
76137;BME280;68622;53.128;17.966;2023-04-03T04:54:14;102542.17;;;-0.57;67.86
76137;BME280;68622;53.128;17.966;2023-04-03T04:56:42;102548.44;;;-0.54;67.61
76137;BME280;68622;53.128;17.966;2023-04-03T04:59:09;102548.08;;;-0.52;67.23
76137;BME280;68622;53.128;17.966;2023-04-03T05:01:35;102552.64;;;-0.50;67.48
76137;BME280;68622;53.128;17.966;2023-04-03T05:04:11;102554.98;;;-0.46;67.18
76137;BME280;68622;53.128;17.966;2023-04-03T05:06:39;102560.02;;;-0.40;67.29
76137;BME280;68622;53.128;17.966;2023-04-03T05:09:09;102558.73;;;-0.33;67.31
76137;BME280;68622;53.128;17.966;2023-04-03T05:11:37;102560.55;;;-0.29;67.42
76137;BME280;68622;53.128;17.966;2023-04-03T05:14:04;102559.11;;;-0.23;67.21
76137;BME280;68622;53.128;17.966;2023-04-03T05:16:34;102562.14;;;-0.21;66.82
76137;BME280;68622;53.128;17.966;2023-04-03T05:19:01;102564.45;;;-0.15;66.91
76137;BME280;68622;53.128;17.966;2023-04-03T05:21:28;102566.95;;;-0.11;66.64
76137;BME280;68622;53.128;17.966;2023-04-03T05:24:00;102567.05;;;-0.06;66.75
76137;BME280;68622;53.128;17.966;2023-04-03T05:26:30;102564.40;;;-0.00;66.73
76137;BME280;68622;53.128;17.966;2023-04-03T05:28:57;102559.73;;;0.04;66.38
76137;BME280;68622;53.128;17.966;2023-04-03T05:31:24;102559.63;;;0.11;66.53
76137;BME280;68622;53.128;17.966;2023-04-03T05:33:51;102560.85;;;0.21;66.66
76137;BME280;68622;53.128;17.966;2023-04-03T05:36:18;102564.07;;;0.33;66.06
76137;BME280;68622;53.128;17.966;2023-04-03T05:38:48;102566.75;;;0.47;65.35
76137;BME280;68622;53.128;17.966;2023-04-03T05:41:15;102565.27;;;0.63;65.20
76137;BME280;68622;53.128;17.966;2023-04-03T05:43:43;102561.79;;;0.77;63.97
76137;BME280;68622;53.128;17.966;2023-04-03T05:46:18;102562.34;;;0.94;63.16
76137;BME280;68622;53.128;17.966;2023-04-03T05:48:47;102562.41;;;1.08;62.31
76137;BME280;68622;53.128;17.966;2023-04-03T05:51:24;102559.02;;;1.23;62.29
76137;BME280;68622;53.128;17.966;2023-04-03T05:53:59;102559.66;;;1.42;62.45
76137;BME280;68622;53.128;17.966;2023-04-03T05:56:28;102560.57;;;1.56;60.77
76137;BME280;68622;53.128;17.966;2023-04-03T05:58:55;102558.63;;;1.75;60.65
76137;BME280;68622;53.128;17.966;2023-04-03T06:01:23;102558.28;;;2.05;59.28
76137;BME280;68622;53.128;17.966;2023-04-03T06:03:50;102558.06;;;2.29;58.72
76137;BME280;68622;53.128;17.966;2023-04-03T06:06:17;102563.38;;;2.42;58.12
76137;BME280;68622;53.128;17.966;2023-04-03T06:08:44;102561.53;;;2.55;57.77
76137;BME280;68622;53.128;17.966;2023-04-03T06:11:11;102563.31;;;2.66;58.53
76137;BME280;68622;53.128;17.966;2023-04-03T06:13:38;102563.36;;;2.77;57.36
76137;BME280;68622;53.128;17.966;2023-04-03T06:16:06;102564.85;;;2.92;57.30
76137;BME280;68622;53.128;17.966;2023-04-03T06:18:33;102564.06;;;3.02;55.63
76137;BME280;68622;53.128;17.966;2023-04-03T06:20:59;102571.60;;;3.09;54.92
76137;BME280;68622;53.128;17.966;2023-04-03T06:23:27;102568.12;;;2.98;53.28
76137;BME280;68622;53.128;17.966;2023-04-03T06:25:54;102574.04;;;2.94;56.37
76137;BME280;68622;53.128;17.966;2023-04-03T06:28:21;102576.30;;;2.87;55.56
76137;BME280;68622;53.128;17.966;2023-04-03T06:30:47;102579.73;;;2.93;56.09
76137;BME280;68622;53.128;17.966;2023-04-03T06:33:14;102581.94;;;3.00;56.32
76137;BME280;68622;53.128;17.966;2023-04-03T06:35:40;102580.96;;;3.04;55.17
76137;BME280;68622;53.128;17.966;2023-04-03T06:38:07;102582.95;;;3.01;53.20
76137;BME280;68622;53.128;17.966;2023-04-03T06:40:35;102587.95;;;3.06;53.87
76137;BME280;68622;53.128;17.966;2023-04-03T06:43:02;102583.81;;;3.08;53.85
76137;BME280;68622;53.128;17.966;2023-04-03T06:45:29;102582.08;;;3.14;54.86
76137;BME280;68622;53.128;17.966;2023-04-03T06:47:56;102588.39;;;3.28;55.35
76137;BME280;68622;53.128;17.966;2023-04-03T06:50:22;102590.55;;;3.55;54.70
76137;BME280;68622;53.128;17.966;2023-04-03T06:52:49;102587.71;;;3.81;51.93
76137;BME280;68622;53.128;17.966;2023-04-03T06:55:15;102592.88;;;4.08;51.47
76137;BME280;68622;53.128;17.966;2023-04-03T06:57:42;102594.36;;;4.10;50.48
76137;BME280;68622;53.128;17.966;2023-04-03T07:00:10;102597.38;;;4.18;49.41
76137;BME280;68622;53.128;17.966;2023-04-03T07:02:38;102600.74;;;4.31;49.89
76137;BME280;68622;53.128;17.966;2023-04-03T07:05:05;102604.16;;;4.21;47.89
76137;BME280;68622;53.128;17.966;2023-04-03T07:07:32;102607.58;;;4.21;49.18
76137;BME280;68622;53.128;17.966;2023-04-03T07:10:00;102604.90;;;4.30;50.05
76137;BME280;68622;53.128;17.966;2023-04-03T07:12:27;102610.92;;;4.29;50.51
76137;BME280;68622;53.128;17.966;2023-04-03T07:14:53;102607.84;;;4.35;51.02
76137;BME280;68622;53.128;17.966;2023-04-03T07:17:20;102605.99;;;4.33;50.21
76137;BME280;68622;53.128;17.966;2023-04-03T07:19:47;102613.78;;;4.27;49.04
76137;BME280;68622;53.128;17.966;2023-04-03T07:22:13;102621.72;;;4.25;50.53
76137;BME280;68622;53.128;17.966;2023-04-03T07:24:40;102625.74;;;4.34;49.88
76137;BME280;68622;53.128;17.966;2023-04-03T07:27:07;102623.83;;;4.29;48.72
76137;BME280;68622;53.128;17.966;2023-04-03T07:29:35;102623.88;;;4.28;49.89
76137;BME280;68622;53.128;17.966;2023-04-03T07:32:02;102628.11;;;4.19;48.18
76137;BME280;68622;53.128;17.966;2023-04-03T07:34:29;102631.73;;;4.13;48.42
76137;BME280;68622;53.128;17.966;2023-04-03T07:36:57;102631.86;;;4.14;49.92
76137;BME280;68622;53.128;17.966;2023-04-03T07:39:24;102630.67;;;4.30;50.62
76137;BME280;68622;53.128;17.966;2023-04-03T07:41:51;102631.07;;;4.34;49.21
76137;BME280;68622;53.128;17.966;2023-04-03T07:44:17;102630.98;;;4.47;48.73
76137;BME280;68622;53.128;17.966;2023-04-03T07:46:44;102631.05;;;4.67;49.25
76137;BME280;68622;53.128;17.966;2023-04-03T07:49:10;102631.96;;;4.70;46.92
76137;BME280;68622;53.128;17.966;2023-04-03T07:51:37;102624.41;;;4.90;48.59
76137;BME280;68622;53.128;17.966;2023-04-03T07:54:04;102627.08;;;5.12;47.71
76137;BME280;68622;53.128;17.966;2023-04-03T07:56:31;102630.29;;;5.19;45.78
76137;BME280;68622;53.128;17.966;2023-04-03T07:58:58;102627.71;;;5.28;44.43
76137;BME280;68622;53.128;17.966;2023-04-03T08:01:24;102621.88;;;5.42;45.45
76137;BME280;68622;53.128;17.966;2023-04-03T08:03:51;102631.44;;;5.63;45.42
76137;BME280;68622;53.128;17.966;2023-04-03T08:06:18;102630.04;;;5.73;44.16
76137;BME280;68622;53.128;17.966;2023-04-03T08:08:45;102629.23;;;5.77;42.52
76137;BME280;68622;53.128;17.966;2023-04-03T08:11:12;102627.33;;;6.04;43.75
76137;BME280;68622;53.128;17.966;2023-04-03T08:13:38;102628.39;;;6.26;43.29
76137;BME280;68622;53.128;17.966;2023-04-03T08:16:10;102626.64;;;6.39;43.12
76137;BME280;68622;53.128;17.966;2023-04-03T08:18:38;102626.80;;;6.53;43.09
76137;BME280;68622;53.128;17.966;2023-04-03T08:21:06;102633.62;;;6.71;42.88
76137;BME280;68622;53.128;17.966;2023-04-03T08:23:33;102629.84;;;6.70;41.45
76137;BME280;68622;53.128;17.966;2023-04-03T08:26:12;102630.26;;;6.94;43.23
76137;BME280;68622;53.128;17.966;2023-04-03T08:28:39;102630.65;;;7.16;42.62
76137;BME280;68622;53.128;17.966;2023-04-03T08:31:11;102633.36;;;7.09;39.92
76137;BME280;68622;53.128;17.966;2023-04-03T08:33:39;102630.55;;;7.19;41.75
76137;BME280;68622;53.128;17.966;2023-04-03T08:36:08;102627.94;;;7.27;40.45
76137;BME280;68622;53.128;17.966;2023-04-03T08:38:42;102629.25;;;7.33;41.03
76137;BME280;68622;53.128;17.966;2023-04-03T08:41:20;102629.71;;;7.30;40.64
76137;BME280;68622;53.128;17.966;2023-04-03T08:44:23;102634.35;;;7.07;38.09
76137;BME280;68622;53.128;17.966;2023-04-03T08:47:11;102640.71;;;6.91;39.25
76137;BME280;68622;53.128;17.966;2023-04-03T08:49:45;102638.15;;;6.57;38.96
76137;BME280;68622;53.128;17.966;2023-04-03T08:52:39;102636.10;;;6.31;38.92
76137;BME280;68622;53.128;17.966;2023-04-03T08:57:42;102634.75;;;6.22;40.37
76137;BME280;68622;53.128;17.966;2023-04-03T09:02:47;102640.29;;;6.13;38.74
76137;BME280;68622;53.128;17.966;2023-04-03T09:05:20;102645.37;;;6.05;39.44
76137;BME280;68622;53.128;17.966;2023-04-03T09:08:14;102640.15;;;5.89;38.41
76137;BME280;68622;53.128;17.966;2023-04-03T09:10:44;102641.14;;;5.80;39.04
76137;BME280;68622;53.128;17.966;2023-04-03T09:13:39;102641.89;;;5.74;40.01
76137;BME280;68622;53.128;17.966;2023-04-03T09:16:39;102636.05;;;5.87;40.79
76137;BME280;68622;53.128;17.966;2023-04-03T09:24:31;102640.77;;;5.86;38.76
76137;BME280;68622;53.128;17.966;2023-04-03T09:27:04;102635.80;;;5.95;40.34
76137;BME280;68622;53.128;17.966;2023-04-03T09:29:35;102649.20;;;6.04;40.48
76137;BME280;68622;53.128;17.966;2023-04-03T09:34:45;102640.95;;;6.13;40.33
76137;BME280;68622;53.128;17.966;2023-04-03T09:37:36;102642.04;;;6.21;40.61
76137;BME280;68622;53.128;17.966;2023-04-03T09:40:05;102646.80;;;6.31;39.16
76137;BME280;68622;53.128;17.966;2023-04-03T09:42:32;102640.20;;;6.36;38.51
76137;BME280;68622;53.128;17.966;2023-04-03T09:45:00;102635.89;;;6.45;39.62
76137;BME280;68622;53.128;17.966;2023-04-03T09:47:35;102635.31;;;6.47;39.49
76137;BME280;68622;53.128;17.966;2023-04-03T09:52:42;102647.53;;;5.98;38.30
76137;BME280;68622;53.128;17.966;2023-04-03T09:55:42;102646.85;;;5.74;39.16
76137;BME280;68622;53.128;17.966;2023-04-03T09:58:24;102646.13;;;5.62;39.57
76137;BME280;68622;53.128;17.966;2023-04-03T10:00:57;102648.48;;;5.72;40.22
76137;BME280;68622;53.128;17.966;2023-04-03T10:03:34;102636.98;;;5.86;39.64
76137;BME280;68622;53.128;17.966;2023-04-03T10:06:22;102631.95;;;6.23;39.78
76137;BME280;68622;53.128;17.966;2023-04-03T10:09:02;102628.53;;;6.56;38.52
76137;BME280;68622;53.128;17.966;2023-04-03T10:11:31;102629.80;;;6.76;38.08
76137;BME280;68622;53.128;17.966;2023-04-03T10:14:01;102625.95;;;6.81;38.23
76137;BME280;68622;53.128;17.966;2023-04-03T10:16:35;102629.19;;;6.73;38.46
76137;BME280;68622;53.128;17.966;2023-04-03T10:21:58;102645.23;;;6.36;38.92
76137;BME280;68622;53.128;17.966;2023-04-03T10:27:10;102635.41;;;6.69;38.86
76137;BME280;68622;53.128;17.966;2023-04-03T10:38:18;102643.93;;;6.12;36.82
76137;BME280;68622;53.128;17.966;2023-04-03T10:41:09;102634.10;;;5.98;37.51
76137;BME280;68622;53.128;17.966;2023-04-03T10:43:56;102630.41;;;6.00;37.69
76137;BME280;68622;53.128;17.966;2023-04-03T10:46:37;102627.96;;;6.28;38.08
76137;BME280;68622;53.128;17.966;2023-04-03T10:51:45;102627.17;;;6.60;38.26
76137;BME280;68622;53.128;17.966;2023-04-03T10:54:34;102636.30;;;6.31;36.92
76137;BME280;68622;53.128;17.966;2023-04-03T10:57:06;102643.57;;;6.17;37.82
76137;BME280;68622;53.128;17.966;2023-04-03T10:59:44;102633.14;;;6.19;37.90
76137;BME280;68622;53.128;17.966;2023-04-03T11:02:28;102626.55;;;6.50;37.77
76137;BME280;68622;53.128;17.966;2023-04-03T11:05:04;102617.61;;;6.95;38.00
76137;BME280;68622;53.128;17.966;2023-04-03T11:07:43;102617.85;;;7.25;37.34
76137;BME280;68622;53.128;17.966;2023-04-03T11:10:18;102630.80;;;7.25;36.21
76137;BME280;68622;53.128;17.966;2023-04-03T11:12:52;102625.96;;;7.33;36.16
76137;BME280;68622;53.128;17.966;2023-04-03T11:15:23;102624.64;;;7.32;36.24
76137;BME280;68622;53.128;17.966;2023-04-03T11:17:57;102625.70;;;7.31;37.30
76137;BME280;68622;53.128;17.966;2023-04-03T11:20:30;102623.48;;;6.78;36.02
76137;BME280;68622;53.128;17.966;2023-04-03T11:23:12;102615.80;;;6.47;37.02
76137;BME280;68622;53.128;17.966;2023-04-03T11:25:42;102621.77;;;6.32;36.69
76137;BME280;68622;53.128;17.966;2023-04-03T11:28:12;102621.34;;;6.21;35.75
76137;BME280;68622;53.128;17.966;2023-04-03T11:30:59;102616.89;;;6.16;36.16
76137;BME280;68622;53.128;17.966;2023-04-03T11:34:02;102612.59;;;6.20;36.14
76137;BME280;68622;53.128;17.966;2023-04-03T11:36:38;102601.69;;;6.38;36.52
76137;BME280;68622;53.128;17.966;2023-04-03T11:39:34;102593.27;;;6.62;36.08
76137;BME280;68622;53.128;17.966;2023-04-03T11:44:42;102584.85;;;7.18;35.81
76137;BME280;68622;53.128;17.966;2023-04-03T11:47:11;102583.29;;;7.34;35.61
76137;BME280;68622;53.128;17.966;2023-04-03T11:49:58;102580.67;;;7.57;35.94
76137;BME280;68622;53.128;17.966;2023-04-03T12:05:50;102587.69;;;7.81;35.18
76137;BME280;68622;53.128;17.966;2023-04-03T12:08:26;102589.30;;;7.98;35.31
76137;BME280;68622;53.128;17.966;2023-04-03T12:19:34;102582.02;;;8.31;36.30
76137;BME280;68622;53.128;17.966;2023-04-03T12:24:34;102574.79;;;8.23;35.01
76137;BME280;68622;53.128;17.966;2023-04-03T12:27:13;102576.68;;;8.12;36.12
76137;BME280;68622;53.128;17.966;2023-04-03T12:35:18;102570.32;;;8.15;35.25
76137;BME280;68622;53.128;17.966;2023-04-03T12:40:42;102564.92;;;8.16;35.69
76137;BME280;68622;53.128;17.966;2023-04-03T12:46:15;102567.98;;;8.14;36.14
76137;BME280;68622;53.128;17.966;2023-04-03T12:48:55;102564.75;;;8.13;36.16
76137;BME280;68622;53.128;17.966;2023-04-03T12:51:32;102565.77;;;8.16;36.50
76137;BME280;68622;53.128;17.966;2023-04-03T12:54:22;102567.13;;;8.03;35.11
76137;BME280;68622;53.128;17.966;2023-04-03T12:56:49;102563.61;;;7.90;35.97
76137;BME280;68622;53.128;17.966;2023-04-03T12:59:25;102561.91;;;7.89;35.48
76137;BME280;68622;53.128;17.966;2023-04-03T13:01:55;102550.87;;;7.99;34.78
76137;BME280;68622;53.128;17.966;2023-04-03T13:04:22;102555.95;;;8.16;35.79
76137;BME280;68622;53.128;17.966;2023-04-03T13:06:50;102551.13;;;8.22;36.10
76137;BME280;68622;53.128;17.966;2023-04-03T13:09:28;102557.98;;;8.09;35.19
76137;BME280;68622;53.128;17.966;2023-04-03T13:11:59;102558.71;;;7.94;34.88
76137;BME280;68622;53.128;17.966;2023-04-03T13:14:27;102563.86;;;7.84;34.51
76137;BME280;68622;53.128;17.966;2023-04-03T13:17:03;102561.78;;;7.91;35.80
76137;BME280;68622;53.128;17.966;2023-04-03T13:19:30;102555.40;;;7.98;35.76
76137;BME280;68622;53.128;17.966;2023-04-03T13:24:57;102555.92;;;7.62;34.87
76137;BME280;68622;53.128;17.966;2023-04-03T13:27:26;102550.38;;;7.51;34.54
76137;BME280;68622;53.128;17.966;2023-04-03T13:29:55;102546.66;;;7.57;35.65
76137;BME280;68622;53.128;17.966;2023-04-03T13:32:25;102547.71;;;7.68;34.10
76137;BME280;68622;53.128;17.966;2023-04-03T13:34:53;102534.51;;;7.77;34.39
76137;BME280;68622;53.128;17.966;2023-04-03T13:37:26;102529.53;;;7.83;35.04
76137;BME280;68622;53.128;17.966;2023-04-03T13:42:34;102541.40;;;7.40;34.12
76137;BME280;68622;53.128;17.966;2023-04-03T13:45:22;102544.31;;;7.33;34.47
76137;BME280;68622;53.128;17.966;2023-04-03T13:47:54;102542.70;;;7.45;35.41
76137;BME280;68622;53.128;17.966;2023-04-03T13:50:32;102543.65;;;7.47;34.53
76137;BME280;68622;53.128;17.966;2023-04-03T13:53:01;102539.75;;;7.64;35.46
76137;BME280;68622;53.128;17.966;2023-04-03T13:55:33;102541.80;;;7.69;34.98
76137;BME280;68622;53.128;17.966;2023-04-03T13:58:20;102538.40;;;7.60;35.20
76137;BME280;68622;53.128;17.966;2023-04-03T14:03:25;102546.20;;;7.41;36.67
76137;BME280;68622;53.128;17.966;2023-04-03T14:05:53;102548.38;;;7.27;36.80
76137;BME280;68622;53.128;17.966;2023-04-03T14:08:20;102547.83;;;6.93;37.13
76137;BME280;68622;53.128;17.966;2023-04-03T14:10:48;102549.68;;;6.86;37.71
76137;BME280;68622;53.128;17.966;2023-04-03T14:13:18;102544.72;;;6.81;37.62
76137;BME280;68622;53.128;17.966;2023-04-03T14:15:47;102542.30;;;6.97;37.41
76137;BME280;68622;53.128;17.966;2023-04-03T14:18:17;102540.27;;;7.04;36.76
76137;BME280;68622;53.128;17.966;2023-04-03T14:20:45;102528.48;;;7.09;36.98
76137;BME280;68622;53.128;17.966;2023-04-03T14:23:12;102531.34;;;7.06;37.19
76137;BME280;68622;53.128;17.966;2023-04-03T14:25:40;102543.19;;;6.93;37.69
76137;BME280;68622;53.128;17.966;2023-04-03T14:28:15;102535.39;;;6.81;38.13
76137;BME280;68622;53.128;17.966;2023-04-03T14:30:42;102544.44;;;6.71;38.79